sensor_id;sensor_type;location;lat;lon;timestamp;P1;durP1;ratioP1;P2;durP2;ratioP2
39772;SDS011;25451;51.960;6.250;2023-08-24T00:01:10;5.30;;;2.95;;
39772;SDS011;25451;51.960;6.250;2023-08-24T00:03:37;5.95;;;2.33;;
39772;SDS011;25451;51.960;6.250;2023-08-24T00:06:03;6.20;;;2.60;;
39772;SDS011;25451;51.960;6.250;2023-08-24T00:08:28;7.30;;;2.97;;
39772;SDS011;25451;51.960;6.250;2023-08-24T00:10:54;4.97;;;2.43;;
39772;SDS011;25451;51.960;6.250;2023-08-24T00:13:19;7.43;;;2.80;;
39772;SDS011;25451;51.960;6.250;2023-08-24T00:15:45;5.63;;;2.63;;
39772;SDS011;25451;51.960;6.250;2023-08-24T00:18:11;4.60;;;2.35;;
39772;SDS011;25451;51.960;6.250;2023-08-24T00:20:36;7.28;;;2.55;;
39772;SDS011;25451;51.960;6.250;2023-08-24T00:23:02;5.70;;;2.90;;
39772;SDS011;25451;51.960;6.250;2023-08-24T00:25:28;4.65;;;2.50;;
39772;SDS011;25451;51.960;6.250;2023-08-24T00:27:55;8.23;;;2.45;;
39772;SDS011;25451;51.960;6.250;2023-08-24T00:30:21;5.10;;;2.20;;
39772;SDS011;25451;51.960;6.250;2023-08-24T00:32:46;6.68;;;3.08;;
39772;SDS011;25451;51.960;6.250;2023-08-24T00:35:12;6.30;;;2.70;;
39772;SDS011;25451;51.960;6.250;2023-08-24T00:37:38;6.10;;;2.93;;
39772;SDS011;25451;51.960;6.250;2023-08-24T00:40:04;5.60;;;2.95;;
39772;SDS011;25451;51.960;6.250;2023-08-24T00:42:37;5.72;;;2.47;;
39772;SDS011;25451;51.960;6.250;2023-08-24T00:45:07;5.63;;;2.30;;
39772;SDS011;25451;51.960;6.250;2023-08-24T00:47:34;5.30;;;2.90;;
39772;SDS011;25451;51.960;6.250;2023-08-24T00:50:00;4.50;;;2.35;;
39772;SDS011;25451;51.960;6.250;2023-08-24T00:52:26;7.13;;;3.05;;
39772;SDS011;25451;51.960;6.250;2023-08-24T00:54:56;8.07;;;2.67;;
39772;SDS011;25451;51.960;6.250;2023-08-24T00:57:22;5.07;;;2.53;;
39772;SDS011;25451;51.960;6.250;2023-08-24T00:59:48;6.20;;;2.90;;
39772;SDS011;25451;51.960;6.250;2023-08-24T01:02:13;6.17;;;2.50;;
39772;SDS011;25451;51.960;6.250;2023-08-24T01:04:40;5.10;;;2.80;;
39772;SDS011;25451;51.960;6.250;2023-08-24T01:07:06;7.55;;;2.55;;
39772;SDS011;25451;51.960;6.250;2023-08-24T01:09:33;6.13;;;2.80;;
39772;SDS011;25451;51.960;6.250;2023-08-24T01:14:40;3.95;;;2.47;;
39772;SDS011;25451;51.960;6.250;2023-08-24T01:17:12;4.95;;;2.13;;
39772;SDS011;25451;51.960;6.250;2023-08-24T01:19:42;4.97;;;2.30;;
39772;SDS011;25451;51.960;6.250;2023-08-24T01:22:55;8.50;;;2.67;;
39772;SDS011;25451;51.960;6.250;2023-08-24T01:27:45;6.93;;;3.00;;
39772;SDS011;25451;51.960;6.250;2023-08-24T01:30:14;6.15;;;2.83;;
39772;SDS011;25451;51.960;6.250;2023-08-24T01:32:39;5.97;;;3.47;;
39772;SDS011;25451;51.960;6.250;2023-08-24T01:35:06;7.13;;;2.92;;
39772;SDS011;25451;51.960;6.250;2023-08-24T01:37:34;5.80;;;3.70;;
39772;SDS011;25451;51.960;6.250;2023-08-24T01:42:43;6.60;;;4.00;;
39772;SDS011;25451;51.960;6.250;2023-08-24T01:45:13;5.78;;;3.45;;
39772;SDS011;25451;51.960;6.250;2023-08-24T01:47:42;6.70;;;3.25;;
39772;SDS011;25451;51.960;6.250;2023-08-24T01:50:08;5.32;;;3.08;;
39772;SDS011;25451;51.960;6.250;2023-08-24T01:52:34;7.28;;;4.50;;
39772;SDS011;25451;51.960;6.250;2023-08-24T01:55:00;8.57;;;4.60;;
39772;SDS011;25451;51.960;6.250;2023-08-24T01:57:25;8.98;;;4.07;;
39772;SDS011;25451;51.960;6.250;2023-08-24T01:59:51;7.57;;;3.43;;
39772;SDS011;25451;51.960;6.250;2023-08-24T02:02:16;8.07;;;4.97;;
39772;SDS011;25451;51.960;6.250;2023-08-24T02:04:42;7.27;;;4.40;;
39772;SDS011;25451;51.960;6.250;2023-08-24T02:07:07;7.07;;;4.30;;
39772;SDS011;25451;51.960;6.250;2023-08-24T02:09:32;6.40;;;3.60;;
39772;SDS011;25451;51.960;6.250;2023-08-24T02:11:58;8.70;;;4.40;;
39772;SDS011;25451;51.960;6.250;2023-08-24T02:14:23;9.03;;;4.67;;
39772;SDS011;25451;51.960;6.250;2023-08-24T02:16:48;9.43;;;4.90;;
39772;SDS011;25451;51.960;6.250;2023-08-24T02:19:14;7.13;;;4.00;;
39772;SDS011;25451;51.960;6.250;2023-08-24T02:21:39;8.40;;;3.90;;
39772;SDS011;25451;51.960;6.250;2023-08-24T02:24:04;7.57;;;3.80;;
39772;SDS011;25451;51.960;6.250;2023-08-24T02:26:30;7.55;;;4.10;;
39772;SDS011;25451;51.960;6.250;2023-08-24T02:28:56;7.70;;;4.60;;
39772;SDS011;25451;51.960;6.250;2023-08-24T02:31:22;9.60;;;4.43;;
39772;SDS011;25451;51.960;6.250;2023-08-24T02:33:48;7.40;;;4.30;;
39772;SDS011;25451;51.960;6.250;2023-08-24T02:36:14;6.03;;;3.70;;
39772;SDS011;25451;51.960;6.250;2023-08-24T02:38:39;6.90;;;3.53;;
39772;SDS011;25451;51.960;6.250;2023-08-24T02:41:05;7.30;;;3.60;;
39772;SDS011;25451;51.960;6.250;2023-08-24T02:43:32;8.55;;;4.00;;
39772;SDS011;25451;51.960;6.250;2023-08-24T02:46:05;6.75;;;3.42;;
39772;SDS011;25451;51.960;6.250;2023-08-24T02:48:31;6.93;;;3.30;;
39772;SDS011;25451;51.960;6.250;2023-08-24T02:50:58;6.90;;;3.60;;
39772;SDS011;25451;51.960;6.250;2023-08-24T02:53:24;8.18;;;3.33;;
39772;SDS011;25451;51.960;6.250;2023-08-24T02:55:50;5.88;;;3.45;;
39772;SDS011;25451;51.960;6.250;2023-08-24T02:58:15;7.37;;;3.60;;
39772;SDS011;25451;51.960;6.250;2023-08-24T03:00:40;7.53;;;3.83;;
39772;SDS011;25451;51.960;6.250;2023-08-24T03:03:06;6.60;;;3.87;;
39772;SDS011;25451;51.960;6.250;2023-08-24T03:05:31;7.03;;;3.40;;
39772;SDS011;25451;51.960;6.250;2023-08-24T03:07:57;5.97;;;3.08;;
39772;SDS011;25451;51.960;6.250;2023-08-24T03:10:23;5.60;;;3.20;;
39772;SDS011;25451;51.960;6.250;2023-08-24T03:12:48;5.85;;;3.45;;
39772;SDS011;25451;51.960;6.250;2023-08-24T03:15:14;7.63;;;3.80;;
39772;SDS011;25451;51.960;6.250;2023-08-24T03:17:39;8.53;;;3.77;;
39772;SDS011;25451;51.960;6.250;2023-08-24T03:20:06;7.10;;;3.90;;
39772;SDS011;25451;51.960;6.250;2023-08-24T03:22:31;9.55;;;3.92;;
39772;SDS011;25451;51.960;6.250;2023-08-24T03:24:57;9.40;;;4.13;;
39772;SDS011;25451;51.960;6.250;2023-08-24T03:27:22;7.87;;;3.80;;
39772;SDS011;25451;51.960;6.250;2023-08-24T03:29:48;7.93;;;4.30;;
39772;SDS011;25451;51.960;6.250;2023-08-24T03:32:13;9.80;;;4.33;;
39772;SDS011;25451;51.960;6.250;2023-08-24T03:34:38;8.38;;;4.50;;
39772;SDS011;25451;51.960;6.250;2023-08-24T03:37:05;10.50;;;4.63;;
39772;SDS011;25451;51.960;6.250;2023-08-24T03:39:30;8.70;;;4.38;;
39772;SDS011;25451;51.960;6.250;2023-08-24T03:41:55;8.77;;;4.30;;
39772;SDS011;25451;51.960;6.250;2023-08-24T03:44:21;6.83;;;4.10;;
39772;SDS011;25451;51.960;6.250;2023-08-24T03:46:46;9.23;;;5.33;;
39772;SDS011;25451;51.960;6.250;2023-08-24T03:49:12;8.20;;;5.60;;
39772;SDS011;25451;51.960;6.250;2023-08-24T03:51:37;9.00;;;5.40;;
39772;SDS011;25451;51.960;6.250;2023-08-24T03:54:02;10.70;;;5.43;;
39772;SDS011;25451;51.960;6.250;2023-08-24T03:56:28;6.70;;;4.10;;
39772;SDS011;25451;51.960;6.250;2023-08-24T03:58:53;7.73;;;4.27;;
39772;SDS011;25451;51.960;6.250;2023-08-24T04:01:18;7.27;;;4.23;;
39772;SDS011;25451;51.960;6.250;2023-08-24T04:03:44;10.60;;;5.17;;
39772;SDS011;25451;51.960;6.250;2023-08-24T04:06:09;10.10;;;5.27;;
39772;SDS011;25451;51.960;6.250;2023-08-24T04:08:34;10.47;;;5.13;;
39772;SDS011;25451;51.960;6.250;2023-08-24T04:11:00;13.63;;;5.70;;
39772;SDS011;25451;51.960;6.250;2023-08-24T04:13:25;10.82;;;4.65;;
39772;SDS011;25451;51.960;6.250;2023-08-24T04:15:51;9.17;;;4.80;;
39772;SDS011;25451;51.960;6.250;2023-08-24T04:18:16;9.67;;;4.40;;
39772;SDS011;25451;51.960;6.250;2023-08-24T04:20:41;9.13;;;4.70;;
39772;SDS011;25451;51.960;6.250;2023-08-24T04:23:06;9.27;;;4.63;;
39772;SDS011;25451;51.960;6.250;2023-08-24T04:25:32;9.47;;;4.73;;
39772;SDS011;25451;51.960;6.250;2023-08-24T04:27:57;9.13;;;4.90;;
39772;SDS011;25451;51.960;6.250;2023-08-24T04:30:22;8.27;;;4.47;;
39772;SDS011;25451;51.960;6.250;2023-08-24T04:32:48;8.63;;;4.17;;
39772;SDS011;25451;51.960;6.250;2023-08-24T04:35:13;7.00;;;4.40;;
39772;SDS011;25451;51.960;6.250;2023-08-24T04:37:39;8.37;;;4.00;;
39772;SDS011;25451;51.960;6.250;2023-08-24T04:40:04;7.83;;;4.03;;
39772;SDS011;25451;51.960;6.250;2023-08-24T04:42:32;8.48;;;4.03;;
39772;SDS011;25451;51.960;6.250;2023-08-24T04:44:57;7.57;;;4.00;;
39772;SDS011;25451;51.960;6.250;2023-08-24T04:47:23;8.77;;;5.13;;
39772;SDS011;25451;51.960;6.250;2023-08-24T04:49:48;8.60;;;4.87;;
39772;SDS011;25451;51.960;6.250;2023-08-24T04:52:13;11.57;;;5.37;;
39772;SDS011;25451;51.960;6.250;2023-08-24T04:54:39;9.93;;;4.77;;
39772;SDS011;25451;51.960;6.250;2023-08-24T04:57:05;10.05;;;5.13;;
39772;SDS011;25451;51.960;6.250;2023-08-24T04:59:30;8.53;;;5.03;;
39772;SDS011;25451;51.960;6.250;2023-08-24T05:01:56;7.28;;;3.95;;
39772;SDS011;25451;51.960;6.250;2023-08-24T05:04:21;10.18;;;5.03;;
39772;SDS011;25451;51.960;6.250;2023-08-24T05:06:46;8.80;;;4.97;;
39772;SDS011;25451;51.960;6.250;2023-08-24T05:09:12;12.47;;;4.60;;
39772;SDS011;25451;51.960;6.250;2023-08-24T05:11:37;11.53;;;5.60;;
39772;SDS011;25451;51.960;6.250;2023-08-24T05:14:02;10.23;;;5.67;;
39772;SDS011;25451;51.960;6.250;2023-08-24T05:16:28;13.27;;;6.10;;
39772;SDS011;25451;51.960;6.250;2023-08-24T05:18:53;11.80;;;6.00;;
39772;SDS011;25451;51.960;6.250;2023-08-24T05:21:19;10.50;;;5.87;;
39772;SDS011;25451;51.960;6.250;2023-08-24T05:23:44;8.53;;;5.07;;
39772;SDS011;25451;51.960;6.250;2023-08-24T05:26:09;7.27;;;4.37;;
39772;SDS011;25451;51.960;6.250;2023-08-24T05:28:35;7.97;;;4.73;;
39772;SDS011;25451;51.960;6.250;2023-08-24T05:31:00;9.87;;;5.00;;
39772;SDS011;25451;51.960;6.250;2023-08-24T05:33:25;8.53;;;4.70;;
39772;SDS011;25451;51.960;6.250;2023-08-24T05:35:52;8.50;;;4.60;;
39772;SDS011;25451;51.960;6.250;2023-08-24T05:38:18;8.85;;;5.15;;
39772;SDS011;25451;51.960;6.250;2023-08-24T05:40:43;9.43;;;4.80;;
39772;SDS011;25451;51.960;6.250;2023-08-24T05:43:12;10.02;;;6.30;;
39772;SDS011;25451;51.960;6.250;2023-08-24T05:45:37;9.53;;;6.13;;
39772;SDS011;25451;51.960;6.250;2023-08-24T05:48:05;11.50;;;6.38;;
39772;SDS011;25451;51.960;6.250;2023-08-24T05:50:30;9.38;;;5.20;;
39772;SDS011;25451;51.960;6.250;2023-08-24T05:52:56;9.37;;;5.77;;
39772;SDS011;25451;51.960;6.250;2023-08-24T05:55:21;11.20;;;6.33;;
39772;SDS011;25451;51.960;6.250;2023-08-24T05:57:47;9.97;;;5.23;;
39772;SDS011;25451;51.960;6.250;2023-08-24T06:00:13;12.73;;;6.68;;
39772;SDS011;25451;51.960;6.250;2023-08-24T06:02:39;13.20;;;6.03;;
39772;SDS011;25451;51.960;6.250;2023-08-24T06:05:05;9.50;;;5.70;;
39772;SDS011;25451;51.960;6.250;2023-08-24T06:07:31;11.40;;;6.93;;
39772;SDS011;25451;51.960;6.250;2023-08-24T06:09:57;11.33;;;6.40;;
39772;SDS011;25451;51.960;6.250;2023-08-24T06:12:23;9.05;;;5.47;;
39772;SDS011;25451;51.960;6.250;2023-08-24T06:14:48;12.57;;;5.97;;
39772;SDS011;25451;51.960;6.250;2023-08-24T06:17:13;10.63;;;5.53;;
39772;SDS011;25451;51.960;6.250;2023-08-24T06:19:39;9.23;;;5.40;;
39772;SDS011;25451;51.960;6.250;2023-08-24T06:22:04;11.77;;;5.93;;
39772;SDS011;25451;51.960;6.250;2023-08-24T06:24:29;11.85;;;6.75;;
39772;SDS011;25451;51.960;6.250;2023-08-24T06:26:55;12.53;;;7.17;;
39772;SDS011;25451;51.960;6.250;2023-08-24T06:29:20;10.00;;;5.80;;
39772;SDS011;25451;51.960;6.250;2023-08-24T06:31:45;10.67;;;5.90;;
39772;SDS011;25451;51.960;6.250;2023-08-24T06:34:11;8.85;;;5.57;;
39772;SDS011;25451;51.960;6.250;2023-08-24T06:36:36;11.95;;;6.15;;
39772;SDS011;25451;51.960;6.250;2023-08-24T06:39:02;11.57;;;6.03;;
39772;SDS011;25451;51.960;6.250;2023-08-24T06:41:32;11.77;;;6.75;;
39772;SDS011;25451;51.960;6.250;2023-08-24T06:43:58;16.35;;;7.30;;
39772;SDS011;25451;51.960;6.250;2023-08-24T06:46:24;10.30;;;6.20;;
39772;SDS011;25451;51.960;6.250;2023-08-24T06:48:49;12.13;;;7.70;;
39772;SDS011;25451;51.960;6.250;2023-08-24T06:51:14;11.13;;;6.70;;
39772;SDS011;25451;51.960;6.250;2023-08-24T06:53:40;10.87;;;6.17;;
39772;SDS011;25451;51.960;6.250;2023-08-24T06:56:07;11.02;;;5.78;;
39772;SDS011;25451;51.960;6.250;2023-08-24T06:58:32;12.33;;;6.80;;
39772;SDS011;25451;51.960;6.250;2023-08-24T07:00:58;11.37;;;6.80;;
39772;SDS011;25451;51.960;6.250;2023-08-24T07:03:23;10.27;;;5.83;;
39772;SDS011;25451;51.960;6.250;2023-08-24T07:05:49;8.50;;;5.28;;
39772;SDS011;25451;51.960;6.250;2023-08-24T07:08:14;9.30;;;5.73;;
39772;SDS011;25451;51.960;6.250;2023-08-24T07:10:39;13.13;;;6.10;;
39772;SDS011;25451;51.960;6.250;2023-08-24T07:13:06;10.20;;;6.20;;
39772;SDS011;25451;51.960;6.250;2023-08-24T07:15:32;11.52;;;6.57;;
39772;SDS011;25451;51.960;6.250;2023-08-24T07:18:00;10.50;;;6.40;;
39772;SDS011;25451;51.960;6.250;2023-08-24T07:20:30;15.90;;;8.20;;
39772;SDS011;25451;51.960;6.250;2023-08-24T07:22:57;13.27;;;6.63;;
39772;SDS011;25451;51.960;6.250;2023-08-24T07:25:22;11.70;;;6.38;;
39772;SDS011;25451;51.960;6.250;2023-08-24T07:27:48;13.40;;;7.23;;
39772;SDS011;25451;51.960;6.250;2023-08-24T07:30:13;12.27;;;7.07;;
39772;SDS011;25451;51.960;6.250;2023-08-24T07:32:38;14.73;;;8.23;;
39772;SDS011;25451;51.960;6.250;2023-08-24T07:35:04;12.43;;;7.20;;
39772;SDS011;25451;51.960;6.250;2023-08-24T07:37:31;12.13;;;6.70;;
39772;SDS011;25451;51.960;6.250;2023-08-24T07:39:57;14.27;;;7.35;;
39772;SDS011;25451;51.960;6.250;2023-08-24T07:42:22;15.30;;;7.47;;
39772;SDS011;25451;51.960;6.250;2023-08-24T07:44:48;15.83;;;7.97;;
39772;SDS011;25451;51.960;6.250;2023-08-24T07:47:14;15.27;;;7.68;;
39772;SDS011;25451;51.960;6.250;2023-08-24T07:49:39;15.90;;;8.07;;
39772;SDS011;25451;51.960;6.250;2023-08-24T07:52:13;14.43;;;7.50;;
39772;SDS011;25451;51.960;6.250;2023-08-24T07:54:39;16.80;;;8.53;;
39772;SDS011;25451;51.960;6.250;2023-08-24T07:57:04;13.20;;;7.67;;
39772;SDS011;25451;51.960;6.250;2023-08-24T07:59:30;12.70;;;6.90;;
39772;SDS011;25451;51.960;6.250;2023-08-24T08:01:55;11.53;;;7.13;;
39772;SDS011;25451;51.960;6.250;2023-08-24T08:04:21;15.90;;;8.03;;
39772;SDS011;25451;51.960;6.250;2023-08-24T08:06:46;13.60;;;7.37;;
39772;SDS011;25451;51.960;6.250;2023-08-24T08:09:11;13.73;;;6.70;;
39772;SDS011;25451;51.960;6.250;2023-08-24T08:11:37;16.08;;;7.93;;
39772;SDS011;25451;51.960;6.250;2023-08-24T08:14:03;13.30;;;7.82;;
39772;SDS011;25451;51.960;6.250;2023-08-24T08:16:28;11.27;;;6.90;;
39772;SDS011;25451;51.960;6.250;2023-08-24T08:18:54;14.07;;;6.07;;
39772;SDS011;25451;51.960;6.250;2023-08-24T08:21:19;11.80;;;6.63;;
39772;SDS011;25451;51.960;6.250;2023-08-24T08:23:44;14.40;;;5.83;;
39772;SDS011;25451;51.960;6.250;2023-08-24T08:26:10;9.88;;;5.75;;
39772;SDS011;25451;51.960;6.250;2023-08-24T08:28:36;10.95;;;5.70;;
39772;SDS011;25451;51.960;6.250;2023-08-24T08:31:02;10.13;;;5.93;;
39772;SDS011;25451;51.960;6.250;2023-08-24T08:33:28;10.63;;;5.63;;
39772;SDS011;25451;51.960;6.250;2023-08-24T08:35:53;11.37;;;6.10;;
39772;SDS011;25451;51.960;6.250;2023-08-24T08:38:19;13.40;;;6.00;;
39772;SDS011;25451;51.960;6.250;2023-08-24T08:40:47;9.10;;;5.30;;
39772;SDS011;25451;51.960;6.250;2023-08-24T08:43:15;13.20;;;5.80;;
39772;SDS011;25451;51.960;6.250;2023-08-24T08:45:40;13.20;;;5.70;;
39772;SDS011;25451;51.960;6.250;2023-08-24T08:48:06;10.07;;;6.30;;
39772;SDS011;25451;51.960;6.250;2023-08-24T08:50:33;13.40;;;6.10;;
39772;SDS011;25451;51.960;6.250;2023-08-24T08:53:00;8.80;;;5.37;;
39772;SDS011;25451;51.960;6.250;2023-08-24T08:55:26;11.88;;;6.47;;
39772;SDS011;25451;51.960;6.250;2023-08-24T08:57:53;12.07;;;5.80;;
39772;SDS011;25451;51.960;6.250;2023-08-24T09:00:23;11.80;;;5.93;;
39772;SDS011;25451;51.960;6.250;2023-08-24T09:02:49;12.30;;;6.03;;
39772;SDS011;25451;51.960;6.250;2023-08-24T09:05:18;10.82;;;4.93;;
39772;SDS011;25451;51.960;6.250;2023-08-24T09:07:45;10.88;;;5.07;;
39772;SDS011;25451;51.960;6.250;2023-08-24T09:10:12;11.30;;;5.85;;
39772;SDS011;25451;51.960;6.250;2023-08-24T09:12:37;12.33;;;5.43;;
39772;SDS011;25451;51.960;6.250;2023-08-24T09:15:03;10.60;;;5.20;;
39772;SDS011;25451;51.960;6.250;2023-08-24T09:17:29;11.52;;;4.78;;
39772;SDS011;25451;51.960;6.250;2023-08-24T09:19:57;10.77;;;4.87;;
39772;SDS011;25451;51.960;6.250;2023-08-24T09:22:23;8.05;;;4.78;;
39772;SDS011;25451;51.960;6.250;2023-08-24T09:24:49;9.27;;;5.77;;
39772;SDS011;25451;51.960;6.250;2023-08-24T09:27:17;10.77;;;5.28;;
39772;SDS011;25451;51.960;6.250;2023-08-24T09:29:51;11.57;;;5.40;;
39772;SDS011;25451;51.960;6.250;2023-08-24T09:32:30;12.03;;;5.20;;
39772;SDS011;25451;51.960;6.250;2023-08-24T09:35:09;9.82;;;4.70;;
39772;SDS011;25451;51.960;6.250;2023-08-24T09:37:35;14.75;;;5.20;;
39772;SDS011;25451;51.960;6.250;2023-08-24T09:40:05;11.75;;;4.90;;
39772;SDS011;25451;51.960;6.250;2023-08-24T09:42:37;10.68;;;5.05;;
39772;SDS011;25451;51.960;6.250;2023-08-24T09:45:04;13.03;;;4.53;;
39772;SDS011;25451;51.960;6.250;2023-08-24T09:47:30;6.82;;;4.10;;
39772;SDS011;25451;51.960;6.250;2023-08-24T09:49:55;9.83;;;4.07;;
39772;SDS011;25451;51.960;6.250;2023-08-24T09:52:21;9.15;;;4.30;;
39772;SDS011;25451;51.960;6.250;2023-08-24T09:54:49;9.43;;;4.45;;
39772;SDS011;25451;51.960;6.250;2023-08-24T09:57:17;10.23;;;4.77;;
39772;SDS011;25451;51.960;6.250;2023-08-24T09:59:43;10.93;;;4.80;;
39772;SDS011;25451;51.960;6.250;2023-08-24T10:02:15;8.98;;;3.90;;
39772;SDS011;25451;51.960;6.250;2023-08-24T10:04:45;9.05;;;4.20;;
39772;SDS011;25451;51.960;6.250;2023-08-24T10:07:14;8.57;;;4.10;;
39772;SDS011;25451;51.960;6.250;2023-08-24T10:09:59;10.30;;;4.50;;
39772;SDS011;25451;51.960;6.250;2023-08-24T10:12:27;8.35;;;4.03;;
39772;SDS011;25451;51.960;6.250;2023-08-24T10:14:56;8.23;;;3.60;;
39772;SDS011;25451;51.960;6.250;2023-08-24T10:17:33;7.60;;;4.10;;
39772;SDS011;25451;51.960;6.250;2023-08-24T10:20:01;8.38;;;3.90;;
39772;SDS011;25451;51.960;6.250;2023-08-24T10:22:30;7.00;;;3.77;;
39772;SDS011;25451;51.960;6.250;2023-08-24T10:24:56;7.68;;;3.45;;
39772;SDS011;25451;51.960;6.250;2023-08-24T10:27:22;9.00;;;3.77;;
39772;SDS011;25451;51.960;6.250;2023-08-24T10:29:49;6.70;;;3.30;;
39772;SDS011;25451;51.960;6.250;2023-08-24T10:32:14;6.60;;;3.20;;
39772;SDS011;25451;51.960;6.250;2023-08-24T10:34:40;8.40;;;3.75;;
39772;SDS011;25451;51.960;6.250;2023-08-24T10:37:09;7.53;;;3.27;;
39772;SDS011;25451;51.960;6.250;2023-08-24T10:39:35;6.88;;;3.50;;
39772;SDS011;25451;51.960;6.250;2023-08-24T10:42:04;6.32;;;3.30;;
39772;SDS011;25451;51.960;6.250;2023-08-24T10:44:36;9.65;;;3.53;;
39772;SDS011;25451;51.960;6.250;2023-08-24T10:47:16;8.90;;;3.40;;
39772;SDS011;25451;51.960;6.250;2023-08-24T10:52:22;7.47;;;3.17;;
39772;SDS011;25451;51.960;6.250;2023-08-24T10:54:49;8.15;;;3.15;;
39772;SDS011;25451;51.960;6.250;2023-08-24T10:57:19;7.80;;;3.80;;
39772;SDS011;25451;51.960;6.250;2023-08-24T11:02:49;6.40;;;3.47;;
39772;SDS011;25451;51.960;6.250;2023-08-24T11:07:50;6.15;;;3.50;;
39772;SDS011;25451;51.960;6.250;2023-08-24T11:10:16;8.32;;;3.50;;
39772;SDS011;25451;51.960;6.250;2023-08-24T11:20:47;5.88;;;3.13;;
39772;SDS011;25451;51.960;6.250;2023-08-24T11:23:14;8.48;;;3.33;;
39772;SDS011;25451;51.960;6.250;2023-08-24T11:25:41;7.23;;;3.43;;
39772;SDS011;25451;51.960;6.250;2023-08-24T11:28:06;7.05;;;3.88;;
39772;SDS011;25451;51.960;6.250;2023-08-24T11:30:32;7.80;;;3.83;;
39772;SDS011;25451;51.960;6.250;2023-08-24T11:32:58;9.23;;;3.75;;
39772;SDS011;25451;51.960;6.250;2023-08-24T11:35:24;6.18;;;3.58;;
39772;SDS011;25451;51.960;6.250;2023-08-24T11:37:53;6.17;;;3.20;;
39772;SDS011;25451;51.960;6.250;2023-08-24T11:40:18;6.15;;;3.35;;
39772;SDS011;25451;51.960;6.250;2023-08-24T11:42:45;7.97;;;3.60;;
39772;SDS011;25451;51.960;6.250;2023-08-24T11:45:11;6.43;;;3.40;;
39772;SDS011;25451;51.960;6.250;2023-08-24T11:47:38;7.60;;;3.70;;
39772;SDS011;25451;51.960;6.250;2023-08-24T11:50:04;7.17;;;3.73;;
39772;SDS011;25451;51.960;6.250;2023-08-24T11:52:30;6.67;;;3.50;;
39772;SDS011;25451;51.960;6.250;2023-08-24T11:54:58;9.98;;;3.72;;
39772;SDS011;25451;51.960;6.250;2023-08-24T11:57:24;8.38;;;3.80;;
39772;SDS011;25451;51.960;6.250;2023-08-24T11:59:51;6.68;;;3.50;;
39772;SDS011;25451;51.960;6.250;2023-08-24T12:02:16;9.53;;;3.40;;
39772;SDS011;25451;51.960;6.250;2023-08-24T12:04:43;10.32;;;4.10;;
39772;SDS011;25451;51.960;6.250;2023-08-24T12:07:09;9.00;;;3.90;;
39772;SDS011;25451;51.960;6.250;2023-08-24T12:09:37;6.53;;;3.40;;
39772;SDS011;25451;51.960;6.250;2023-08-24T12:12:03;6.65;;;3.30;;
39772;SDS011;25451;51.960;6.250;2023-08-24T12:14:29;8.67;;;3.60;;
39772;SDS011;25451;51.960;6.250;2023-08-24T12:17:08;6.63;;;3.67;;
39772;SDS011;25451;51.960;6.250;2023-08-24T12:19:34;6.35;;;3.00;;
39772;SDS011;25451;51.960;6.250;2023-08-24T12:21:59;8.77;;;3.57;;
39772;SDS011;25451;51.960;6.250;2023-08-24T12:24:24;10.90;;;3.63;;
39772;SDS011;25451;51.960;6.250;2023-08-24T12:26:56;8.30;;;4.20;;
39772;SDS011;25451;51.960;6.250;2023-08-24T12:29:26;6.85;;;3.30;;
39772;SDS011;25451;51.960;6.250;2023-08-24T12:31:52;8.00;;;3.50;;
39772;SDS011;25451;51.960;6.250;2023-08-24T12:34:22;6.88;;;3.42;;
39772;SDS011;25451;51.960;6.250;2023-08-24T12:36:48;9.18;;;3.67;;
39772;SDS011;25451;51.960;6.250;2023-08-24T12:39:13;6.23;;;3.80;;
39772;SDS011;25451;51.960;6.250;2023-08-24T12:41:40;7.65;;;4.00;;
39772;SDS011;25451;51.960;6.250;2023-08-24T12:44:05;8.37;;;3.50;;
39772;SDS011;25451;51.960;6.250;2023-08-24T12:46:33;7.10;;;3.33;;
39772;SDS011;25451;51.960;6.250;2023-08-24T12:49:02;7.35;;;3.83;;
39772;SDS011;25451;51.960;6.250;2023-08-24T12:51:28;9.23;;;3.80;;
39772;SDS011;25451;51.960;6.250;2023-08-24T12:53:54;9.05;;;3.72;;
39772;SDS011;25451;51.960;6.250;2023-08-24T12:56:19;9.97;;;3.60;;
39772;SDS011;25451;51.960;6.250;2023-08-24T12:58:44;8.83;;;4.30;;
39772;SDS011;25451;51.960;6.250;2023-08-24T13:01:10;9.07;;;3.80;;
39772;SDS011;25451;51.960;6.250;2023-08-24T13:03:37;6.40;;;3.53;;
39772;SDS011;25451;51.960;6.250;2023-08-24T13:06:04;11.20;;;3.80;;
39772;SDS011;25451;51.960;6.250;2023-08-24T13:08:31;10.88;;;4.00;;
39772;SDS011;25451;51.960;6.250;2023-08-24T13:10:56;11.53;;;4.27;;
39772;SDS011;25451;51.960;6.250;2023-08-24T13:13:22;8.90;;;3.78;;
39772;SDS011;25451;51.960;6.250;2023-08-24T13:15:50;8.00;;;3.20;;
39772;SDS011;25451;51.960;6.250;2023-08-24T13:18:16;6.63;;;3.40;;
39772;SDS011;25451;51.960;6.250;2023-08-24T13:20:42;11.47;;;4.00;;
39772;SDS011;25451;51.960;6.250;2023-08-24T13:23:07;7.65;;;3.88;;
39772;SDS011;25451;51.960;6.250;2023-08-24T13:25:33;8.57;;;4.07;;
39772;SDS011;25451;51.960;6.250;2023-08-24T13:27:58;8.37;;;3.60;;
39772;SDS011;25451;51.960;6.250;2023-08-24T13:30:23;6.77;;;3.40;;
39772;SDS011;25451;51.960;6.250;2023-08-24T13:32:49;8.20;;;3.70;;
39772;SDS011;25451;51.960;6.250;2023-08-24T13:35:14;6.77;;;3.60;;
39772;SDS011;25451;51.960;6.250;2023-08-24T13:37:39;6.97;;;4.07;;
39772;SDS011;25451;51.960;6.250;2023-08-24T13:40:05;8.87;;;4.30;;
39772;SDS011;25451;51.960;6.250;2023-08-24T13:42:32;9.13;;;4.07;;
39772;SDS011;25451;51.960;6.250;2023-08-24T13:44:57;9.33;;;4.10;;
39772;SDS011;25451;51.960;6.250;2023-08-24T13:47:23;8.40;;;4.23;;
39772;SDS011;25451;51.960;6.250;2023-08-24T13:49:48;11.37;;;4.67;;
39772;SDS011;25451;51.960;6.250;2023-08-24T13:52:13;6.57;;;4.00;;
39772;SDS011;25451;51.960;6.250;2023-08-24T13:54:41;7.40;;;3.80;;
39772;SDS011;25451;51.960;6.250;2023-08-24T13:57:06;7.77;;;3.80;;
39772;SDS011;25451;51.960;6.250;2023-08-24T13:59:32;6.90;;;4.20;;
39772;SDS011;25451;51.960;6.250;2023-08-24T14:01:57;7.70;;;4.20;;
39772;SDS011;25451;51.960;6.250;2023-08-24T14:04:23;6.53;;;3.83;;
39772;SDS011;25451;51.960;6.250;2023-08-24T14:06:48;10.07;;;4.07;;
39772;SDS011;25451;51.960;6.250;2023-08-24T14:09:14;6.23;;;3.77;;
39772;SDS011;25451;51.960;6.250;2023-08-24T14:11:39;7.03;;;3.87;;
39772;SDS011;25451;51.960;6.250;2023-08-24T14:14:04;9.63;;;3.47;;
39772;SDS011;25451;51.960;6.250;2023-08-24T14:16:29;10.63;;;4.10;;
39772;SDS011;25451;51.960;6.250;2023-08-24T14:18:55;7.93;;;3.80;;
39772;SDS011;25451;51.960;6.250;2023-08-24T14:21:20;6.13;;;3.50;;
39772;SDS011;25451;51.960;6.250;2023-08-24T14:23:46;9.63;;;3.73;;
39772;SDS011;25451;51.960;6.250;2023-08-24T14:26:11;7.95;;;4.38;;
39772;SDS011;25451;51.960;6.250;2023-08-24T14:28:50;9.17;;;4.40;;
39772;SDS011;25451;51.960;6.250;2023-08-24T14:31:20;7.90;;;4.57;;
39772;SDS011;25451;51.960;6.250;2023-08-24T14:33:46;10.77;;;4.45;;
39772;SDS011;25451;51.960;6.250;2023-08-24T14:36:11;8.70;;;3.83;;
39772;SDS011;25451;51.960;6.250;2023-08-24T14:38:38;8.93;;;4.00;;
39772;SDS011;25451;51.960;6.250;2023-08-24T14:41:04;8.23;;;4.20;;
39772;SDS011;25451;51.960;6.250;2023-08-24T14:43:30;12.80;;;4.50;;
39772;SDS011;25451;51.960;6.250;2023-08-24T14:45:55;8.35;;;4.07;;
39772;SDS011;25451;51.960;6.250;2023-08-24T14:48:21;7.63;;;4.23;;
39772;SDS011;25451;51.960;6.250;2023-08-24T14:50:46;10.17;;;4.73;;
39772;SDS011;25451;51.960;6.250;2023-08-24T14:53:11;8.43;;;4.23;;
39772;SDS011;25451;51.960;6.250;2023-08-24T14:55:37;7.93;;;4.47;;
39772;SDS011;25451;51.960;6.250;2023-08-24T14:58:04;8.05;;;4.03;;
39772;SDS011;25451;51.960;6.250;2023-08-24T15:00:29;7.40;;;3.90;;
39772;SDS011;25451;51.960;6.250;2023-08-24T15:02:54;8.37;;;4.00;;